sensor_id;sensor_type;location;lat;lon;timestamp;pressure;altitude;pressure_sealevel;temperature;humidity
80733;BME280;70130;44.534;18.678;2023-12-04T00:01:18;99948.63;;;-4.00;78.83
80733;BME280;70130;44.534;18.678;2023-12-04T00:03:50;99940.19;;;-4.21;78.80
80733;BME280;70130;44.534;18.678;2023-12-04T00:06:16;99952.06;;;-4.06;79.19
80733;BME280;70130;44.534;18.678;2023-12-04T00:08:41;99932.34;;;-4.15;79.28
80733;BME280;70130;44.534;18.678;2023-12-04T00:11:07;99913.41;;;-4.30;78.96
80733;BME280;70130;44.534;18.678;2023-12-04T00:13:33;99937.78;;;-4.10;79.12
80733;BME280;70130;44.534;18.678;2023-12-04T00:15:59;99946.44;;;-4.16;79.38
80733;BME280;70130;44.534;18.678;2023-12-04T00:18:25;99942.22;;;-4.17;79.41
80733;BME280;70130;44.534;18.678;2023-12-04T00:20:50;99929.56;;;-4.40;79.05
80733;BME280;70130;44.534;18.678;2023-12-04T00:23:16;99934.97;;;-4.21;79.05
80733;BME280;70130;44.534;18.678;2023-12-04T00:25:45;99933.16;;;-4.21;79.10
80733;BME280;70130;44.534;18.678;2023-12-04T00:28:11;99926.28;;;-4.22;78.80
80733;BME280;70130;44.534;18.678;2023-12-04T00:30:36;99923.47;;;-4.20;78.93
80733;BME280;70130;44.534;18.678;2023-12-04T00:33:02;99924.84;;;-4.05;78.67
80733;BME280;70130;44.534;18.678;2023-12-04T00:35:28;99913.19;;;-4.22;78.63
80733;BME280;70130;44.534;18.678;2023-12-04T00:37:59;99928.50;;;-4.19;78.42
80733;BME280;70130;44.534;18.678;2023-12-04T00:40:31;99916.84;;;-4.29;78.77
80733;BME280;70130;44.534;18.678;2023-12-04T00:42:59;99934.78;;;-4.33;78.97
80733;BME280;70130;44.534;18.678;2023-12-04T00:45:25;99930.38;;;-4.46;78.97
80733;BME280;70130;44.534;18.678;2023-12-04T00:47:57;99926.97;;;-4.66;79.53
80733;BME280;70130;44.534;18.678;2023-12-04T00:50:25;99927.78;;;-4.59;79.63
80733;BME280;70130;44.534;18.678;2023-12-04T00:52:51;99931.78;;;-4.56;79.75
80733;BME280;70130;44.534;18.678;2023-12-04T00:55:16;99944.28;;;-4.45;79.64
80733;BME280;70130;44.534;18.678;2023-12-04T00:57:54;99949.50;;;-4.39;79.38
80733;BME280;70130;44.534;18.678;2023-12-04T01:00:32;99950.31;;;-4.51;79.64
80733;BME280;70130;44.534;18.678;2023-12-04T01:03:19;99952.31;;;-4.47;79.74
80733;BME280;70130;44.534;18.678;2023-12-04T01:05:45;99949.50;;;-4.45;79.76
80733;BME280;70130;44.534;18.678;2023-12-04T01:08:10;99947.31;;;-4.61;79.67
80733;BME280;70130;44.534;18.678;2023-12-04T01:10:36;99927.78;;;-4.59;79.59
80733;BME280;70130;44.534;18.678;2023-12-04T01:13:05;99939.66;;;-4.50;79.64
80733;BME280;70130;44.534;18.678;2023-12-04T01:15:36;99938.41;;;-4.47;79.51
80733;BME280;70130;44.534;18.678;2023-12-04T01:18:02;99933.59;;;-4.57;79.52
80733;BME280;70130;44.534;18.678;2023-12-04T01:20:30;99944.66;;;-4.42;79.37
80733;BME280;70130;44.534;18.678;2023-12-04T01:23:01;99962.63;;;-4.45;79.46
80733;BME280;70130;44.534;18.678;2023-12-04T01:25:39;99956.38;;;-4.51;79.52
80733;BME280;70130;44.534;18.678;2023-12-04T01:28:07;99964.63;;;-4.47;79.51
80733;BME280;70130;44.534;18.678;2023-12-04T01:33:40;99953.75;;;-4.70;79.60
80733;BME280;70130;44.534;18.678;2023-12-04T01:36:08;99948.50;;;-4.70;79.96
80733;BME280;70130;44.534;18.678;2023-12-04T01:38:34;99951.13;;;-4.64;79.68
80733;BME280;70130;44.534;18.678;2023-12-04T01:41:03;99959.59;;;-4.55;79.28
80733;BME280;70130;44.534;18.678;2023-12-04T01:43:28;99942.06;;;-4.68;79.66
80733;BME280;70130;44.534;18.678;2023-12-04T01:45:59;99967.06;;;-4.59;79.40
80733;BME280;70130;44.534;18.678;2023-12-04T01:48:28;99945.69;;;-4.69;79.56
80733;BME280;70130;44.534;18.678;2023-12-04T01:50:58;99957.16;;;-4.57;79.36
80733;BME280;70130;44.534;18.678;2023-12-04T01:53:29;99948.53;;;-4.64;79.44
80733;BME280;70130;44.534;18.678;2023-12-04T01:56:16;99947.91;;;-4.79;79.98
80733;BME280;70130;44.534;18.678;2023-12-04T01:58:55;99949.31;;;-4.76;79.65
80733;BME280;70130;44.534;18.678;2023-12-04T02:01:23;99940.84;;;-4.72;79.72
80733;BME280;70130;44.534;18.678;2023-12-04T02:03:49;99927.38;;;-4.75;80.06
80733;BME280;70130;44.534;18.678;2023-12-04T02:06:18;99934.81;;;-4.79;80.17
80733;BME280;70130;44.534;18.678;2023-12-04T02:08:48;99939.44;;;-4.81;80.21
80733;BME280;70130;44.534;18.678;2023-12-04T02:11:27;99948.09;;;-4.81;80.02
80733;BME280;70130;44.534;18.678;2023-12-04T02:13:55;99930.19;;;-4.90;79.86
80733;BME280;70130;44.534;18.678;2023-12-04T02:16:23;99953.31;;;-4.87;79.94
80733;BME280;70130;44.534;18.678;2023-12-04T02:18:52;99952.72;;;-4.83;79.97
80733;BME280;70130;44.534;18.678;2023-12-04T02:21:20;99950.94;;;-4.89;79.83
80733;BME280;70130;44.534;18.678;2023-12-04T02:24:04;99956.34;;;-5.03;80.27
80733;BME280;70130;44.534;18.678;2023-12-04T02:26:47;99955.91;;;-5.07;80.24
80733;BME280;70130;44.534;18.678;2023-12-04T02:29:16;99940.41;;;-5.22;80.51
80733;BME280;70130;44.534;18.678;2023-12-04T02:31:58;99958.16;;;-5.04;80.18
80733;BME280;70130;44.534;18.678;2023-12-04T02:34:34;99954.53;;;-5.09;80.21
80733;BME280;70130;44.534;18.678;2023-12-04T02:37:19;99955.72;;;-5.05;80.14
80733;BME280;70130;44.534;18.678;2023-12-04T02:39:50;99951.09;;;-5.10;79.47
80733;BME280;70130;44.534;18.678;2023-12-04T02:42:22;99946.88;;;-5.04;79.87
80733;BME280;70130;44.534;18.678;2023-12-04T02:44:50;99943.44;;;-5.05;80.27
80733;BME280;70130;44.534;18.678;2023-12-04T02:47:19;99948.06;;;-5.13;79.38
80733;BME280;70130;44.534;18.678;2023-12-04T02:49:57;99955.53;;;-5.10;79.57
80733;BME280;70130;44.534;18.678;2023-12-04T02:52:25;99956.53;;;-5.11;79.34
80733;BME280;70130;44.534;18.678;2023-12-04T02:54:57;99956.72;;;-5.13;79.49
80733;BME280;70130;44.534;18.678;2023-12-04T02:57:25;99959.13;;;-5.11;79.51
80733;BME280;70130;44.534;18.678;2023-12-04T02:59:53;99936.56;;;-5.26;79.16
80733;BME280;70130;44.534;18.678;2023-12-04T03:02:19;99949.25;;;-5.23;79.78
80733;BME280;70130;44.534;18.678;2023-12-04T03:04:48;99949.84;;;-5.27;80.04
80733;BME280;70130;44.534;18.678;2023-12-04T03:07:25;99949.44;;;-5.31;79.56
80733;BME280;70130;44.534;18.678;2023-12-04T03:09:54;99950.28;;;-5.24;80.01
80733;BME280;70130;44.534;18.678;2023-12-04T03:15:32;99950.66;;;-5.27;80.18
80733;BME280;70130;44.534;18.678;2023-12-04T03:18:01;99946.72;;;-5.57;80.59
80733;BME280;70130;44.534;18.678;2023-12-04T03:20:32;99928.66;;;-5.45;80.80
80733;BME280;70130;44.534;18.678;2023-12-04T03:23:01;99937.72;;;-5.48;80.39
80733;BME280;70130;44.534;18.678;2023-12-04T03:25:48;99951.81;;;-5.49;80.46
80733;BME280;70130;44.534;18.678;2023-12-04T03:28:26;99933.28;;;-5.54;80.32
80733;BME280;70130;44.534;18.678;2023-12-04T03:30:54;99944.41;;;-5.39;80.12
80733;BME280;70130;44.534;18.678;2023-12-04T03:33:23;99936.53;;;-5.45;80.07
80733;BME280;70130;44.534;18.678;2023-12-04T03:35:49;99952.47;;;-5.27;80.12
80733;BME280;70130;44.534;18.678;2023-12-04T03:38:17;99935.34;;;-5.43;79.87
80733;BME280;70130;44.534;18.678;2023-12-04T03:40:46;99948.00;;;-5.40;80.16
80733;BME280;70130;44.534;18.678;2023-12-04T03:43:29;99941.19;;;-5.34;79.96
80733;BME280;70130;44.534;18.678;2023-12-04T03:45:58;99941.97;;;-5.40;79.68
80733;BME280;70130;44.534;18.678;2023-12-04T03:48:26;99933.94;;;-5.39;79.86
80733;BME280;70130;44.534;18.678;2023-12-04T03:50:52;99940.56;;;-5.43;79.58
80733;BME280;70130;44.534;18.678;2023-12-04T03:53:20;99942.97;;;-5.48;79.47
80733;BME280;70130;44.534;18.678;2023-12-04T03:55:49;99940.97;;;-5.39;80.17
80733;BME280;70130;44.534;18.678;2023-12-04T03:58:14;99944.16;;;-5.50;79.61
80733;BME280;70130;44.534;18.678;2023-12-04T04:00:43;99937.53;;;-5.53;79.70
80733;BME280;70130;44.534;18.678;2023-12-04T04:03:11;99934.50;;;-5.50;79.64
80733;BME280;70130;44.534;18.678;2023-12-04T04:05:37;99943.56;;;-5.46;79.33
80733;BME280;70130;44.534;18.678;2023-12-04T04:08:06;99930.03;;;-5.56;79.56
80733;BME280;70130;44.534;18.678;2023-12-04T04:10:36;99937.22;;;-5.71;79.71
80733;BME280;70130;44.534;18.678;2023-12-04T04:13:08;99936.47;;;-5.65;79.83
80733;BME280;70130;44.534;18.678;2023-12-04T04:15:36;99934.84;;;-5.66;80.03
80733;BME280;70130;44.534;18.678;2023-12-04T04:18:08;99918.09;;;-5.85;80.01
80733;BME280;70130;44.534;18.678;2023-12-04T04:20:36;99928.16;;;-5.75;80.23
80733;BME280;70130;44.534;18.678;2023-12-04T04:23:02;99934.84;;;-5.73;79.97
80733;BME280;70130;44.534;18.678;2023-12-04T04:25:30;99917.53;;;-5.74;80.09
80733;BME280;70130;44.534;18.678;2023-12-04T04:27:56;99926.38;;;-5.75;79.77
80733;BME280;70130;44.534;18.678;2023-12-04T04:30:24;99924.13;;;-5.84;79.90
80733;BME280;70130;44.534;18.678;2023-12-04T04:32:56;99935.56;;;-5.85;79.68
80733;BME280;70130;44.534;18.678;2023-12-04T04:35:22;99921.91;;;-5.94;80.24
80733;BME280;70130;44.534;18.678;2023-12-04T04:37:50;99929.16;;;-5.89;80.50
80733;BME280;70130;44.534;18.678;2023-12-04T04:40:22;99927.53;;;-5.77;80.54
80733;BME280;70130;44.534;18.678;2023-12-04T04:42:50;99927.19;;;-5.74;80.14
80733;BME280;70130;44.534;18.678;2023-12-04T04:45:16;99921.91;;;-5.81;80.33
80733;BME280;70130;44.534;18.678;2023-12-04T04:47:42;99931.41;;;-5.73;80.29
80733;BME280;70130;44.534;18.678;2023-12-04T04:50:10;99919.34;;;-5.74;80.13
80733;BME280;70130;44.534;18.678;2023-12-04T04:52:36;99936.00;;;-5.75;79.75
80733;BME280;70130;44.534;18.678;2023-12-04T04:55:05;99920.72;;;-5.78;79.88
80733;BME280;70130;44.534;18.678;2023-12-04T04:57:31;99924.16;;;-5.78;80.00
80733;BME280;70130;44.534;18.678;2023-12-04T04:59:59;99928.78;;;-5.73;79.79
80733;BME280;70130;44.534;18.678;2023-12-04T05:02:25;99913.84;;;-5.86;79.50
80733;BME280;70130;44.534;18.678;2023-12-04T05:04:54;99918.88;;;-5.84;79.84
80733;BME280;70130;44.534;18.678;2023-12-04T05:07:19;99921.50;;;-5.97;79.87
80733;BME280;70130;44.534;18.678;2023-12-04T05:10:04;99914.88;;;-5.93;80.20
80733;BME280;70130;44.534;18.678;2023-12-04T05:12:32;99918.88;;;-5.91;79.81
80733;BME280;70130;44.534;18.678;2023-12-04T05:15:10;99931.50;;;-6.01;80.15
80733;BME280;70130;44.534;18.678;2023-12-04T05:17:48;99919.06;;;-5.99;79.82
80733;BME280;70130;44.534;18.678;2023-12-04T05:20:16;99898.75;;;-6.03;80.03
80733;BME280;70130;44.534;18.678;2023-12-04T05:22:42;99908.25;;;-5.89;79.90
80733;BME280;70130;44.534;18.678;2023-12-04T05:25:08;99917.44;;;-6.00;79.67
80733;BME280;70130;44.534;18.678;2023-12-04T05:27:45;99889.00;;;-6.16;80.05
80733;BME280;70130;44.534;18.678;2023-12-04T05:30:17;99910.22;;;-5.91;80.03
80733;BME280;70130;44.534;18.678;2023-12-04T05:33:07;99911.84;;;-5.90;80.03
80733;BME280;70130;44.534;18.678;2023-12-04T05:35:33;99911.63;;;-5.95;79.94
80733;BME280;70130;44.534;18.678;2023-12-04T05:38:03;99895.28;;;-6.11;79.94
80733;BME280;70130;44.534;18.678;2023-12-04T05:40:29;99915.81;;;-6.01;80.19
80733;BME280;70130;44.534;18.678;2023-12-04T05:42:54;99917.84;;;-5.96;80.22
80733;BME280;70130;44.534;18.678;2023-12-04T05:45:20;99908.97;;;-6.08;80.29
80733;BME280;70130;44.534;18.678;2023-12-04T05:48:17;99896.41;;;-6.26;80.51
80733;BME280;70130;44.534;18.678;2023-12-04T05:50:42;99890.00;;;-6.24;80.76
80733;BME280;70130;44.534;18.678;2023-12-04T05:53:08;99897.66;;;-6.16;80.54
80733;BME280;70130;44.534;18.678;2023-12-04T05:55:37;99874.91;;;-6.28;80.51
80733;BME280;70130;44.534;18.678;2023-12-04T05:58:12;99864.00;;;-6.38;80.19
80733;BME280;70130;44.534;18.678;2023-12-04T06:00:49;99894.44;;;-6.18;80.19
80733;BME280;70130;44.534;18.678;2023-12-04T06:03:15;99894.00;;;-6.21;80.32
80733;BME280;70130;44.534;18.678;2023-12-04T06:05:41;99889.81;;;-6.22;80.86
80733;BME280;70130;44.534;18.678;2023-12-04T06:08:07;99900.84;;;-6.20;80.87
80733;BME280;70130;44.534;18.678;2023-12-04T06:10:32;99892.78;;;-6.32;80.97
80733;BME280;70130;44.534;18.678;2023-12-04T06:13:00;99892.78;;;-6.25;81.19
80733;BME280;70130;44.534;18.678;2023-12-04T06:15:26;99894.00;;;-6.28;80.71
80733;BME280;70130;44.534;18.678;2023-12-04T06:17:51;99896.03;;;-6.23;80.87
80733;BME280;70130;44.534;18.678;2023-12-04T06:20:17;99883.72;;;-6.29;80.53
80733;BME280;70130;44.534;18.678;2023-12-04T06:22:43;99873.00;;;-6.47;81.01
80733;BME280;70130;44.534;18.678;2023-12-04T06:25:09;99879.72;;;-6.32;80.82
80733;BME280;70130;44.534;18.678;2023-12-04T06:27:35;99882.97;;;-6.17;80.51
80733;BME280;70130;44.534;18.678;2023-12-04T06:30:01;99879.38;;;-6.16;80.10
80733;BME280;70130;44.534;18.678;2023-12-04T06:32:28;99891.63;;;-6.23;79.81
80733;BME280;70130;44.534;18.678;2023-12-04T06:34:53;99890.44;;;-6.14;79.74
80733;BME280;70130;44.534;18.678;2023-12-04T06:37:21;99877.38;;;-6.14;80.04
80733;BME280;70130;44.534;18.678;2023-12-04T06:39:48;99863.56;;;-6.07;79.74
80733;BME280;70130;44.534;18.678;2023-12-04T06:42:14;99872.34;;;-6.15;79.79
80733;BME280;70130;44.534;18.678;2023-12-04T06:44:40;99876.41;;;-6.06;79.45
80733;BME280;70130;44.534;18.678;2023-12-04T06:47:08;99882.78;;;-6.22;79.52
80733;BME280;70130;44.534;18.678;2023-12-04T06:49:34;99879.16;;;-6.21;79.74
80733;BME280;70130;44.534;18.678;2023-12-04T06:52:00;99885.06;;;-6.05;80.18
80733;BME280;70130;44.534;18.678;2023-12-04T06:54:26;99885.66;;;-6.03;80.07
80733;BME280;70130;44.534;18.678;2023-12-04T06:56:52;99885.34;;;-5.87;79.69
80733;BME280;70130;44.534;18.678;2023-12-04T06:59:18;99898.00;;;-5.71;79.43
80733;BME280;70130;44.534;18.678;2023-12-04T07:01:44;99887.34;;;-5.83;79.15
80733;BME280;70130;44.534;18.678;2023-12-04T07:04:10;99884.53;;;-5.75;79.58
80733;BME280;70130;44.534;18.678;2023-12-04T07:06:36;99849.31;;;-5.92;79.34
80733;BME280;70130;44.534;18.678;2023-12-04T07:09:03;99852.72;;;-5.85;78.98
80733;BME280;70130;44.534;18.678;2023-12-04T07:11:29;99873.31;;;-5.69;78.90
80733;BME280;70130;44.534;18.678;2023-12-04T07:13:55;99865.25;;;-5.67;78.65
80733;BME280;70130;44.534;18.678;2023-12-04T07:16:21;99889.41;;;-5.58;78.38
80733;BME280;70130;44.534;18.678;2023-12-04T07:18:47;99890.00;;;-5.63;78.55
80733;BME280;70130;44.534;18.678;2023-12-04T07:21:12;99872.13;;;-5.53;78.88
80733;BME280;70130;44.534;18.678;2023-12-04T07:23:38;99890.88;;;-5.30;77.98
80733;BME280;70130;44.534;18.678;2023-12-04T07:26:04;99887.44;;;-5.37;78.05
80733;BME280;70130;44.534;18.678;2023-12-04T07:28:30;99876.16;;;-5.50;78.63
80733;BME280;70130;44.534;18.678;2023-12-04T07:30:56;99893.88;;;-5.33;78.56
80733;BME280;70130;44.534;18.678;2023-12-04T07:33:21;99879.78;;;-5.32;78.54
80733;BME280;70130;44.534;18.678;2023-12-04T07:35:47;99853.63;;;-5.45;78.59
80733;BME280;70130;44.534;18.678;2023-12-04T07:38:14;99880.41;;;-5.30;78.59
80733;BME280;70130;44.534;18.678;2023-12-04T07:40:41;99883.00;;;-5.36;78.94
80733;BME280;70130;44.534;18.678;2023-12-04T07:43:07;99880.22;;;-5.22;78.95
80733;BME280;70130;44.534;18.678;2023-12-04T07:45:32;99876.59;;;-5.34;79.53
80733;BME280;70130;44.534;18.678;2023-12-04T07:48:00;99854.81;;;-5.47;79.68
80733;BME280;70130;44.534;18.678;2023-12-04T07:50:25;99880.63;;;-5.25;80.25
80733;BME280;70130;44.534;18.678;2023-12-04T07:52:51;99875.81;;;-5.01;79.32
80733;BME280;70130;44.534;18.678;2023-12-04T07:55:17;99890.72;;;-4.95;78.96
80733;BME280;70130;44.534;18.678;2023-12-04T07:57:42;99876.81;;;-4.96;78.80
80733;BME280;70130;44.534;18.678;2023-12-04T08:00:08;99885.28;;;-4.94;79.21
80733;BME280;70130;44.534;18.678;2023-12-04T08:02:34;99892.31;;;-4.74;78.99
80733;BME280;70130;44.534;18.678;2023-12-04T08:05:00;99887.66;;;-4.66;79.38
80733;BME280;70130;44.534;18.678;2023-12-04T08:07:25;99889.06;;;-4.63;79.41
80733;BME280;70130;44.534;18.678;2023-12-04T08:09:51;99892.06;;;-4.53;79.11
80733;BME280;70130;44.534;18.678;2023-12-04T08:12:18;99889.25;;;-4.45;79.07
80733;BME280;70130;44.534;18.678;2023-12-04T08:14:43;99897.13;;;-4.45;78.74
80733;BME280;70130;44.534;18.678;2023-12-04T08:17:09;99898.94;;;-4.46;78.56
80733;BME280;70130;44.534;18.678;2023-12-04T08:19:34;99895.06;;;-4.37;78.56
80733;BME280;70130;44.534;18.678;2023-12-04T08:22:04;99896.28;;;-4.26;78.36
80733;BME280;70130;44.534;18.678;2023-12-04T08:24:29;99891.22;;;-4.27;78.63
80733;BME280;70130;44.534;18.678;2023-12-04T08:26:56;99903.69;;;-4.16;78.29
80733;BME280;70130;44.534;18.678;2023-12-04T08:29:22;99895.03;;;-4.10;78.53
80733;BME280;70130;44.534;18.678;2023-12-04T08:31:48;99890.78;;;-4.05;78.23
80733;BME280;70130;44.534;18.678;2023-12-04T08:34:13;99873.44;;;-4.06;79.08
80733;BME280;70130;44.534;18.678;2023-12-04T08:36:39;99889.28;;;-3.87;78.44
80733;BME280;70130;44.534;18.678;2023-12-04T08:39:05;99886.81;;;-3.76;78.24
80733;BME280;70130;44.534;18.678;2023-12-04T08:41:30;99890.81;;;-3.67;77.47
80733;BME280;70130;44.534;18.678;2023-12-04T08:43:56;99877.69;;;-3.67;77.15
80733;BME280;70130;44.534;18.678;2023-12-04T08:46:22;99876.22;;;-3.56;76.89
80733;BME280;70130;44.534;18.678;2023-12-04T08:48:47;99885.00;;;-3.37;76.83
80733;BME280;70130;44.534;18.678;2023-12-04T08:51:16;99868.41;;;-3.31;74.35
80733;BME280;70130;44.534;18.678;2023-12-04T08:53:42;99870.31;;;-3.20;74.51
80733;BME280;70130;44.534;18.678;2023-12-04T08:56:09;99859.03;;;-3.21;74.51
80733;BME280;70130;44.534;18.678;2023-12-04T08:58:35;99868.59;;;-3.01;74.33
80733;BME280;70130;44.534;18.678;2023-12-04T09:01:00;99880.00;;;-2.89;73.63
80733;BME280;70130;44.534;18.678;2023-12-04T09:03:26;99876.69;;;-2.78;73.60
80733;BME280;70130;44.534;18.678;2023-12-04T09:05:52;99859.09;;;-2.78;73.87
80733;BME280;70130;44.534;18.678;2023-12-04T09:08:18;99858.44;;;-2.73;73.55
80733;BME280;70130;44.534;18.678;2023-12-04T09:10:47;99870.22;;;-2.57;73.25
80733;BME280;70130;44.534;18.678;2023-12-04T09:13:13;99852.84;;;-2.58;73.21
80733;BME280;70130;44.534;18.678;2023-12-04T09:15:39;99861.34;;;-2.38;72.67
80733;BME280;70130;44.534;18.678;2023-12-04T09:18:05;99852.72;;;-2.27;72.97
80733;BME280;70130;44.534;18.678;2023-12-04T09:20:30;99839.94;;;-2.24;72.32
80733;BME280;70130;44.534;18.678;2023-12-04T09:22:56;99853.88;;;-2.05;71.86
80733;BME280;70130;44.534;18.678;2023-12-04T09:25:22;99831.38;;;-2.01;71.71
80733;BME280;70130;44.534;18.678;2023-12-04T09:27:47;99827.31;;;-1.85;70.96
80733;BME280;70130;44.534;18.678;2023-12-04T09:30:13;99834.34;;;-1.67;70.63
80733;BME280;70130;44.534;18.678;2023-12-04T09:32:39;99830.41;;;-1.58;70.19
80733;BME280;70130;44.534;18.678;2023-12-04T09:35:05;99821.84;;;-1.42;69.11
80733;BME280;70130;44.534;18.678;2023-12-04T09:37:31;99820.16;;;-1.37;68.78
80733;BME280;70130;44.534;18.678;2023-12-04T09:39:57;99804.81;;;-1.28;67.85
80733;BME280;70130;44.534;18.678;2023-12-04T09:42:23;99812.06;;;-0.89;64.13
80733;BME280;70130;44.534;18.678;2023-12-04T09:44:48;99806.69;;;-0.94;64.09
80733;BME280;70130;44.534;18.678;2023-12-04T09:47:18;99801.09;;;-0.85;63.04
80733;BME280;70130;44.534;18.678;2023-12-04T09:49:45;99789.28;;;-0.83;63.29
80733;BME280;70130;44.534;18.678;2023-12-04T09:52:11;99783.78;;;-0.70;62.31
80733;BME280;70130;44.534;18.678;2023-12-04T09:54:38;99772.28;;;-0.64;61.83
80733;BME280;70130;44.534;18.678;2023-12-04T09:57:05;99775.84;;;-0.58;61.35
80733;BME280;70130;44.534;18.678;2023-12-04T09:59:31;99776.53;;;-0.51;61.58
80733;BME280;70130;44.534;18.678;2023-12-04T10:02:00;99753.06;;;-0.24;59.99
80733;BME280;70130;44.534;18.678;2023-12-04T10:04:26;99766.16;;;-0.29;60.92
80733;BME280;70130;44.534;18.678;2023-12-04T10:06:53;99750.09;;;-0.28;61.07
80733;BME280;70130;44.534;18.678;2023-12-04T10:09:19;99742.75;;;-0.26;60.90
80733;BME280;70130;44.534;18.678;2023-12-04T10:11:48;99748.69;;;-0.19;60.58
80733;BME280;70130;44.534;18.678;2023-12-04T10:14:18;99733.97;;;-0.15;60.17
80733;BME280;70130;44.534;18.678;2023-12-04T10:16:44;99730.69;;;0.07;58.60
80733;BME280;70130;44.534;18.678;2023-12-04T10:19:26;99723.75;;;0.17;59.00
80733;BME280;70130;44.534;18.678;2023-12-04T10:21:54;99704.78;;;0.04;58.80
80733;BME280;70130;44.534;18.678;2023-12-04T10:24:46;99719.19;;;0.13;59.27
80733;BME280;70130;44.534;18.678;2023-12-04T10:27:14;99715.44;;;0.09;59.22
80733;BME280;70130;44.534;18.678;2023-12-04T10:29:44;99710.41;;;0.24;58.84
80733;BME280;70130;44.534;18.678;2023-12-04T10:32:11;99716.31;;;0.14;59.67
80733;BME280;70130;44.534;18.678;2023-12-04T10:34:37;99698.16;;;0.51;58.27
80733;BME280;70130;44.534;18.678;2023-12-04T10:37:05;99688.97;;;0.54;58.46
80733;BME280;70130;44.534;18.678;2023-12-04T10:39:31;99676.81;;;0.36;58.73
80733;BME280;70130;44.534;18.678;2023-12-04T10:42:01;99671.88;;;0.39;58.69
80733;BME280;70130;44.534;18.678;2023-12-04T10:44:28;99671.06;;;0.39;59.58
80733;BME280;70130;44.534;18.678;2023-12-04T10:47:00;99657.84;;;0.39;59.87
80733;BME280;70130;44.534;18.678;2023-12-04T10:49:27;99653.50;;;0.50;59.19
80733;BME280;70130;44.534;18.678;2023-12-04T10:51:58;99653.13;;;0.58;59.45
80733;BME280;70130;44.534;18.678;2023-12-04T10:54:27;99656.00;;;0.56;59.15
80733;BME280;70130;44.534;18.678;2023-12-04T10:56:58;99648.94;;;0.62;58.65
80733;BME280;70130;44.534;18.678;2023-12-04T10:59:27;99628.78;;;0.56;58.56
80733;BME280;70130;44.534;18.678;2023-12-04T11:01:59;99643.97;;;0.65;58.00
80733;BME280;70130;44.534;18.678;2023-12-04T11:04:29;99626.50;;;0.64;58.04
80733;BME280;70130;44.534;18.678;2023-12-04T11:06:59;99625.69;;;0.80;57.25
80733;BME280;70130;44.534;18.678;2023-12-04T11:09:29;99617.59;;;0.87;57.29
80733;BME280;70130;44.534;18.678;2023-12-04T11:11:59;99609.09;;;0.85;57.25
80733;BME280;70130;44.534;18.678;2023-12-04T11:14:42;99594.84;;;1.08;56.04
80733;BME280;70130;44.534;18.678;2023-12-04T11:17:10;99597.50;;;1.08;56.42
80733;BME280;70130;44.534;18.678;2023-12-04T11:19:57;99600.78;;;1.20;56.01
80733;BME280;70130;44.534;18.678;2023-12-04T11:22:25;99592.34;;;1.18;55.59
80733;BME280;70130;44.534;18.678;2023-12-04T11:24:51;99583.31;;;1.19;54.88
80733;BME280;70130;44.534;18.678;2023-12-04T11:27:18;99579.16;;;1.23;54.25
80733;BME280;70130;44.534;18.678;2023-12-04T11:29:46;99571.19;;;1.18;53.49
80733;BME280;70130;44.534;18.678;2023-12-04T11:32:16;99590.16;;;1.15;53.61
80733;BME280;70130;44.534;18.678;2023-12-04T11:34:53;99572.50;;;1.20;52.56
80733;BME280;70130;44.534;18.678;2023-12-04T11:37:20;99568.59;;;1.23;52.52
80733;BME280;70130;44.534;18.678;2023-12-04T11:39:47;99565.50;;;1.31;51.41
80733;BME280;70130;44.534;18.678;2023-12-04T11:42:24;99564.50;;;1.37;51.87
80733;BME280;70130;44.534;18.678;2023-12-04T11:45:00;99550.25;;;1.43;50.76
80733;BME280;70130;44.534;18.678;2023-12-04T11:47:28;99549.53;;;1.48;51.06
80733;BME280;70130;44.534;18.678;2023-12-04T11:49:54;99528.63;;;1.46;51.19
80733;BME280;70130;44.534;18.678;2023-12-04T11:52:33;99521.78;;;1.50;49.81
80733;BME280;70130;44.534;18.678;2023-12-04T11:55:04;99531.13;;;1.63;49.09
80733;BME280;70130;44.534;18.678;2023-12-04T11:57:38;99533.03;;;1.67;49.34
80733;BME280;70130;44.534;18.678;2023-12-04T12:00:11;99523.06;;;1.80;48.65
80733;BME280;70130;44.534;18.678;2023-12-04T12:02:39;99506.22;;;1.91;47.40
80733;BME280;70130;44.534;18.678;2023-12-04T12:05:06;99513.16;;;1.97;46.59
80733;BME280;70130;44.534;18.678;2023-12-04T12:07:33;99512.03;;;1.93;46.90
80733;BME280;70130;44.534;18.678;2023-12-04T12:10:03;99501.00;;;2.01;46.77
80733;BME280;70130;44.534;18.678;2023-12-04T12:12:30;99494.63;;;1.97;46.61
80733;BME280;70130;44.534;18.678;2023-12-04T12:14:56;99459.78;;;1.73;46.21
80733;BME280;70130;44.534;18.678;2023-12-04T12:17:25;99489.56;;;1.95;45.99
80733;BME280;70130;44.534;18.678;2023-12-04T12:19:50;99490.97;;;2.08;46.42
80733;BME280;70130;44.534;18.678;2023-12-04T12:22:17;99476.38;;;2.00;46.86
80733;BME280;70130;44.534;18.678;2023-12-04T12:24:42;99470.25;;;1.95;47.08
80733;BME280;70130;44.534;18.678;2023-12-04T12:27:08;99476.13;;;2.02;47.66
80733;BME280;70130;44.534;18.678;2023-12-04T12:29:34;99473.47;;;2.02;48.00
80733;BME280;70130;44.534;18.678;2023-12-04T12:31:59;99472.72;;;2.06;48.12
80733;BME280;70130;44.534;18.678;2023-12-04T12:34:25;99463.22;;;2.15;47.87
80733;BME280;70130;44.534;18.678;2023-12-04T12:36:52;99460.31;;;2.12;48.34
80733;BME280;70130;44.534;18.678;2023-12-04T12:39:18;99453.44;;;2.16;48.75
80733;BME280;70130;44.534;18.678;2023-12-04T12:41:49;99454.81;;;2.29;48.87
80733;BME280;70130;44.534;18.678;2023-12-04T12:44:16;99467.50;;;2.22;49.31
80733;BME280;70130;44.534;18.678;2023-12-04T12:46:47;99452.38;;;2.22;50.01
80733;BME280;70130;44.534;18.678;2023-12-04T12:49:14;99453.22;;;2.28;50.24
80733;BME280;70130;44.534;18.678;2023-12-04T12:51:40;99455.59;;;2.29;50.17
80733;BME280;70130;44.534;18.678;2023-12-04T12:54:06;99446.09;;;2.33;50.62
80733;BME280;70130;44.534;18.678;2023-12-04T12:56:31;99436.81;;;2.26;50.98
80733;BME280;70130;44.534;18.678;2023-12-04T12:58:57;99434.13;;;2.21;51.67
80733;BME280;70130;44.534;18.678;2023-12-04T13:01:23;99432.03;;;2.33;51.65
80733;BME280;70130;44.534;18.678;2023-12-04T13:03:50;99417.22;;;2.27;51.22
80733;BME280;70130;44.534;18.678;2023-12-04T13:06:16;99418.06;;;2.47;50.98